Time;durP1;ratioP1;P1;durP2;ratioP2;P2;SDS_P1;SDS_P2;PMS_P1;PMS_P2;Temp;Humidity;BMP_temperature;BMP_pressure;BME280_temperature;BME280_humidity;BME280_pressure;Samples;Min_cycle;Max_cycle;Signal;HPM_P1;HPM_P2
2023/12/25 00:01:22;;;;;;;364.67;13.55;;;;;;;21.98;56.54;97916.88;7276856;19;130618;-37
2023/12/25 00:03:47;;;;;;;367.08;14.20;;;;;;;22.03;56.25;97916.34;7280320;19;130550;-39
2023/12/25 00:06:12;;;;;;;313.75;12.02;;;;;;;21.98;56.35;97912.66;7281101;19;131208;-37
2023/12/25 00:08:38;;;;;;;335.30;13.57;;;;;;;22.00;56.81;97908.06;7276630;19;130647;-38
2023/12/25 00:11:03;;;;;;;333.97;13.10;;;;;;;21.98;56.99;97892.53;7278020;19;129204;-37
2023/12/25 00:13:29;;;;;;;363.80;13.93;;;;;;;21.96;57.01;97911.00;7278099;19;131855;-39
2023/12/25 00:15:54;;;;;;;296.40;11.60;;;;;;;21.94;56.87;97905.16;7277489;19;131132;-36
2023/12/25 00:18:20;;;;;;;338.07;13.10;;;;;;;21.81;56.45;97867.56;7276098;19;131619;-37
2023/12/25 00:20:45;;;;;;;378.10;14.70;;;;;;;21.91;57.31;97884.56;7278560;19;129790;-38
2023/12/25 00:23:10;;;;;;;305.03;11.57;;;;;;;21.74;56.62;97862.22;7276960;19;131086;-38
2023/12/25 00:25:36;;;;;;;319.20;12.20;;;;;;;21.86;56.97;97884.34;7278991;19;132198;-38
2023/12/25 00:28:01;;;;;;;279.48;10.85;;;;;;;21.70;56.71;97866.19;7278655;19;129905;-37
2023/12/25 00:30:26;;;;;;;348.30;13.20;;;;;;;21.85;57.07;97892.34;7279296;19;130189;-34
2023/12/25 00:32:52;;;;;;;316.23;12.63;;;;;;;21.75;56.94;97881.34;7279061;19;130877;-38
2023/12/25 00:35:17;;;;;;;345.53;12.87;;;;;;;21.90;57.00;97893.44;7279992;19;131469;-37
2023/12/25 00:37:43;;;;;;;324.50;12.32;;;;;;;21.87;57.21;97899.03;7277651;19;131560;-38
2023/12/25 00:40:08;;;;;;;405.63;15.35;;;;;;;21.84;56.95;97899.41;7279935;19;130938;-38
2023/12/25 00:42:33;;;;;;;311.80;11.57;;;;;;;21.81;56.91;97902.38;7276969;19;130627;-38
2023/12/25 00:44:59;;;;;;;372.52;14.52;;;;;;;21.83;56.99;97907.44;7276080;19;133046;-35
2023/12/25 00:47:24;;;;;;;317.00;12.07;;;;;;;21.84;56.89;97904.63;7280118;19;129859;-37
2023/12/25 00:49:50;;;;;;;353.07;13.37;;;;;;;21.84;56.54;97909.03;7277554;19;131427;-37
2023/12/25 00:52:17;;;;;;;264.37;10.10;;;;;;;21.83;56.75;97913.47;7279381;19;131592;-38
2023/12/25 00:54:43;;;;;;;339.25;12.85;;;;;;;21.82;57.29;97911.84;7278782;19;130941;-38
2023/12/25 00:57:09;;;;;;;344.60;12.97;;;;;;;21.83;56.98;97902.19;7276769;19;131485;-36
2023/12/25 00:59:34;;;;;;;342.57;13.27;;;;;;;21.81;57.26;97907.63;7277716;19;129762;-35
2023/12/25 01:01:59;;;;;;;342.10;12.87;;;;;;;21.82;56.53;97911.84;7277013;19;130370;-37
2023/12/25 01:04:25;;;;;;;393.88;14.68;;;;;;;21.81;56.81;97910.25;7278793;19;131056;-35
2023/12/25 01:06:50;;;;;;;457.55;17.42;;;;;;;21.81;56.79;97925.94;7278320;19;132472;-38
2023/12/25 01:09:15;;;;;;;325.27;12.45;;;;;;;21.81;57.00;97920.69;7278747;19;130381;-38
2023/12/25 01:11:42;;;;;;;308.40;11.67;;;;;;;21.80;57.29;97924.28;7277874;19;129573;-34
2023/12/25 01:14:08;;;;;;;319.23;12.02;;;;;;;21.78;56.78;97926.28;7278313;19;131550;-36
2023/12/25 01:16:34;;;;;;;357.15;13.27;;;;;;;21.79;57.20;97938.38;7277453;19;130833;-37
2023/12/25 01:18:59;;;;;;;322.53;12.23;;;;;;;21.82;57.13;97938.00;7279407;19;131002;-38
2023/12/25 01:21:25;;;;;;;302.58;11.48;;;;;;;21.80;56.72;97939.97;7276965;19;130292;-34
2023/12/25 01:23:50;;;;;;;337.27;12.93;;;;;;;21.80;56.84;97942.59;7276954;19;130924;-37
2023/12/25 01:26:15;;;;;;;359.50;13.13;;;;;;;21.81;56.62;97951.28;7278671;19;130003;-37
2023/12/25 01:28:41;;;;;;;323.52;12.23;;;;;;;21.82;57.15;97956.31;7278476;19;131722;-35
2023/12/25 01:31:06;;;;;;;316.65;12.13;;;;;;;21.82;56.72;97953.69;7277533;19;130650;-38
2023/12/25 01:33:31;;;;;;;418.95;16.92;;;;;;;21.82;56.74;97943.25;7275531;19;131770;-38
2023/12/25 01:35:57;;;;;;;375.80;14.07;;;;;;;21.81;57.03;97957.31;7276671;19;129593;-37
2023/12/25 01:38:22;;;;;;;285.17;10.70;;;;;;;21.78;56.65;97960.28;7276461;19;129259;-35
2023/12/25 01:40:47;;;;;;;325.90;11.87;;;;;;;21.80;57.17;97950.44;7277542;19;131659;-36
2023/12/25 01:43:13;;;;;;;341.17;12.57;;;;;;;21.79;57.10;97943.59;7276656;19;130290;-35
2023/12/25 01:45:38;;;;;;;361.87;13.60;;;;;;;21.79;56.65;97933.13;7277656;19;131024;-36
2023/12/25 01:48:05;;;;;;;317.58;11.88;;;;;;;21.79;56.96;97941.00;7278236;19;132760;-36
2023/12/25 01:50:31;;;;;;;324.65;11.88;;;;;;;21.79;56.46;97954.06;7277054;19;131872;-38
2023/12/25 01:52:57;;;;;;;399.25;14.88;;;;;;;21.77;57.18;97956.06;7272815;19;132728;-35
2023/12/25 01:55:22;;;;;;;303.63;11.07;;;;;;;21.77;56.53;97971.75;7277062;19;129248;-37
2023/12/25 01:57:47;;;;;;;288.80;10.70;;;;;;;21.77;56.95;97976.16;7273803;19;130512;-35
2023/12/25 02:00:13;;;;;;;348.30;12.75;;;;;;;21.77;56.83;97963.06;7276354;19;132123;-38
2023/12/25 02:02:40;;;;;;;380.17;13.80;;;;;;;21.75;56.65;97960.59;7276737;19;132039;-38
2023/12/25 02:05:06;;;;;;;324.85;11.93;;;;;;;21.75;57.14;97971.06;7278612;19;131230;-37
2023/12/25 02:07:33;;;;;;;336.33;12.33;;;;;;;21.75;56.91;97985.97;7277031;19;129518;-37
2023/12/25 02:09:58;;;;;;;296.02;11.13;;;;;;;21.75;57.23;97976.31;7275283;19;130592;-38
2023/12/25 02:12:23;;;;;;;370.63;13.93;;;;;;;21.74;56.89;97981.72;7276577;19;131597;-38
2023/12/25 02:14:49;;;;;;;284.90;10.57;;;;;;;21.73;57.14;97990.56;7278460;19;131139;-39
2023/12/25 02:17:15;;;;;;;292.00;10.60;;;;;;;21.73;57.13;97982.72;7276841;19;129928;-37
2023/12/25 02:19:43;;;;;;;316.02;11.82;;;;;;;21.71;56.81;97982.91;7275204;19;129398;-38
2023/12/25 02:22:09;;;;;;;372.25;13.60;;;;;;;21.71;56.68;97982.91;7275725;19;130521;-36
2023/12/25 02:25:21;;;;;;;322.30;11.87;;;;;;;21.68;58.23;97991.09;7278035;19;130557;-38
2023/12/25 02:27:47;;;;;;;356.90;12.93;;;;;;;21.70;57.28;97985.69;7272545;19;131727;-38
2023/12/25 02:30:12;;;;;;;305.33;11.27;;;;;;;21.69;57.11;97990.09;7276392;19;131140;-37
2023/12/25 02:32:38;;;;;;;311.07;11.57;;;;;;;21.69;56.91;97995.34;7273633;19;130770;-38
2023/12/25 02:35:03;;;;;;;275.10;10.50;;;;;;;21.68;56.88;97985.84;7277001;19;129921;-39
2023/12/25 02:37:29;;;;;;;386.43;14.13;;;;;;;21.67;57.47;97986.84;7274921;19;132230;-37
2023/12/25 02:39:54;;;;;;;336.50;12.67;;;;;;;21.66;57.46;97980.00;7276541;19;130826;-36
2023/12/25 02:42:20;;;;;;;308.85;11.02;;;;;;;21.65;57.40;97973.13;7273479;19;132180;-37
2023/12/25 02:44:45;;;;;;;292.47;10.77;;;;;;;21.67;57.28;97970.34;7276839;19;133012;-38
2023/12/25 02:47:10;;;;;;;358.08;13.23;;;;;;;21.66;57.28;97979.19;7276853;19;130930;-38
2023/12/25 02:49:35;;;;;;;282.95;10.23;;;;;;;21.64;57.13;97982.00;7276678;19;131391;-38
2023/12/25 02:52:01;;;;;;;292.00;10.57;;;;;;;21.65;57.17;97982.81;7273340;19;132339;-37
2023/12/25 02:54:26;;;;;;;325.65;11.82;;;;;;;21.63;57.13;97972.53;7275206;19;129933;-37
2023/12/25 02:56:51;;;;;;;494.38;18.98;;;;;;;21.63;56.73;97969.91;7273692;19;129704;-37
2023/12/25 02:59:17;;;;;;;258.07;9.23;;;;;;;21.63;56.91;97964.69;7275599;19;130406;-37
2023/12/25 03:01:42;;;;;;;335.67;12.20;;;;;;;21.62;57.52;97960.44;7273876;19;130152;-36
2023/12/25 03:04:07;;;;;;;387.03;14.23;;;;;;;21.62;57.14;97965.66;7275768;19;130194;-36
2023/12/25 03:06:33;;;;;;;281.73;10.33;;;;;;;21.61;57.42;97961.44;7280846;19;129562;-37
2023/12/25 03:08:58;;;;;;;294.53;10.67;;;;;;;21.61;57.07;97971.88;7282436;19;130250;-38
2023/12/25 03:11:23;;;;;;;284.20;10.15;;;;;;;21.58;57.57;97967.03;7282837;19;132103;-37
2023/12/25 03:13:49;;;;;;;359.88;12.93;;;;;;;21.59;57.23;97983.50;7283662;19;130526;-38
2023/12/25 03:16:14;;;;;;;287.05;10.25;;;;;;;21.59;57.08;97979.09;7283546;19;130425;-36
2023/12/25 03:18:39;;;;;;;323.25;12.20;;;;;;;21.58;57.60;97982.72;7279771;19;130768;-38
2023/12/25 03:21:05;;;;;;;285.27;10.20;;;;;;;21.58;56.94;97987.94;7281907;19;130952;-35
2023/12/25 03:23:30;;;;;;;357.17;12.93;;;;;;;21.57;57.19;97985.47;7281505;19;129739;-38
2023/12/25 03:25:56;;;;;;;267.70;10.07;;;;;;;21.57;56.88;97981.06;7283652;19;130833;-38
2023/12/25 03:28:23;;;;;;;300.10;10.90;;;;;;;21.57;56.97;97991.53;7280890;19;130692;-38
2023/12/25 03:30:49;;;;;;;;;;;;;;;21.58;58.55;97998.41;7280752;19;131158;-37
2023/12/25 03:33:14;;;;;;;401.75;14.20;;;;;;;21.56;56.95;97984.69;7276415;19;130141;-38
2023/12/25 03:35:39;;;;;;;315.98;11.18;;;;;;;21.56;57.56;98003.00;7279378;19;129588;-37
2023/12/25 03:38:07;;;;;;;270.95;10.23;;;;;;;21.54;57.18;97984.03;7277846;19;130058;-37
2023/12/25 03:40:33;;;;;;;340.02;12.32;;;;;;;21.53;56.99;97990.28;7278083;19;130013;-37
2023/12/25 03:42:58;;;;;;;334.80;12.25;;;;;;;21.52;57.30;97974.75;7280957;19;130151;-36
2023/12/25 03:45:24;;;;;;;289.57;10.43;;;;;;;21.41;57.21;97959.50;7281903;19;130498;-37
2023/12/25 03:47:49;;;;;;;265.77;9.35;;;;;;;21.53;57.75;97979.00;7281069;19;130121;-38
2023/12/25 03:50:14;;;;;;;359.83;12.95;;;;;;;21.52;57.70;97988.63;7279169;19;129473;-39
2023/12/25 03:52:40;;;;;;;327.95;11.88;;;;;;;21.52;57.69;97978.19;7282116;19;131705;-36
2023/12/25 03:55:05;;;;;;;317.33;11.83;;;;;;;21.52;57.51;97979.97;7281430;19;131975;-37
2023/12/25 03:57:30;;;;;;;286.43;10.20;;;;;;;21.37;56.97;97948.56;7279429;19;130811;-38
2023/12/25 03:59:56;;;;;;;406.05;14.68;;;;;;;21.50;57.64;97977.53;7279898;19;130939;-35
2023/12/25 04:02:21;;;;;;;415.43;15.33;;;;;;;21.50;57.08;97967.06;7277757;19;132265;-37
2023/12/25 04:04:47;;;;;;;301.65;10.70;;;;;;;21.47;57.13;97953.56;7280787;19;130304;-37
2023/12/25 04:07:14;;;;;;;297.35;10.75;;;;;;;21.47;57.20;97984.94;7281534;19;131571;-37
2023/12/25 04:09:39;;;;;;;368.83;13.15;;;;;;;21.48;57.19;97987.38;7279542;19;130482;-38
2023/12/25 04:12:05;;;;;;;349.23;12.55;;;;;;;21.33;57.36;97978.69;7277479;19;130792;-38
2023/12/25 04:14:31;;;;;;;274.55;9.80;;;;;;;21.47;57.67;98006.66;7281176;19;129373;-35
2023/12/25 04:16:56;;;;;;;324.38;11.80;;;;;;;21.43;57.21;97989.72;7279329;19;130922;-38
2023/12/25 04:19:21;;;;;;;382.47;13.67;;;;;;;21.46;57.13;97989.34;7278728;19;131769;-37
2023/12/25 04:21:47;;;;;;;295.23;10.70;;;;;;;21.47;57.71;98000.63;7280295;19;132818;-37
2023/12/25 04:24:12;;;;;;;338.23;12.15;;;;;;;21.46;57.13;97999.00;7278684;19;131276;-36
2023/12/25 04:26:37;;;;;;;316.10;11.07;;;;;;;21.46;57.34;97989.34;7282052;19;130668;-38
2023/12/25 04:29:03;;;;;;;385.60;13.95;;;;;;;21.45;57.48;97998.16;7279930;19;129803;-37
2023/12/25 04:31:28;;;;;;;289.52;10.20;;;;;;;21.46;57.81;97993.75;7280508;19;130343;-39
2023/12/25 04:33:53;;;;;;;270.00;9.52;;;;;;;21.45;57.66;97979.06;7279028;19;129707;-35
2023/12/25 04:36:19;;;;;;;335.70;12.15;;;;;;;21.43;58.11;97975.81;7278931;19;132904;-37
2023/12/25 04:38:44;;;;;;;329.60;11.77;;;;;;;21.24;57.74;97963.25;7278424;19;130382;-38
2023/12/25 04:41:09;;;;;;;343.10;12.33;;;;;;;21.56;57.40;97992.53;7279604;19;130786;-35
2023/12/25 04:43:35;;;;;;;310.15;11.30;;;;;;;21.98;56.14;97979.69;7281384;19;131633;-36
2023/12/25 04:46:04;;;;;;;368.83;13.40;;;;;;;22.73;54.24;97979.38;7275646;19;130429;-38
2023/12/25 04:48:29;;;;;;;317.50;11.52;;;;;;;23.64;51.35;97969.72;7278167;19;131267;-38
2023/12/25 04:50:56;;;;;;;327.83;11.63;;;;;;;24.27;49.94;97956.38;7279652;19;131091;-37
2023/12/25 04:53:22;;;;;;;301.15;10.63;;;;;;;24.91;48.00;97987.47;7277608;19;131304;-37
2023/12/25 04:55:47;;;;;;;404.27;14.85;;;;;;;25.15;47.10;97960.63;7279693;19;130575;-37
2023/12/25 04:58:13;;;;;;;411.57;15.57;;;;;;;25.28;46.52;97947.47;7276326;19;131479;-37
2023/12/25 05:00:38;;;;;;;309.90;11.38;;;;;;;25.60;45.96;97967.72;7277700;19;133300;-38
2023/12/25 05:03:04;;;;;;;306.40;11.23;;;;;;;25.72;45.69;97967.91;7277718;19;130723;-37
2023/12/25 05:05:29;;;;;;;352.87;12.63;;;;;;;25.80;45.77;97963.22;7278799;19;130216;-36
2023/12/25 05:07:54;;;;;;;298.53;10.80;;;;;;;25.85;45.86;97981.03;7279814;19;131955;-37
2023/12/25 05:10:20;;;;;;;290.47;10.73;;;;;;;25.72;45.47;97979.22;7276748;19;131579;-37
2023/12/25 05:12:45;;;;;;;325.88;11.95;;;;;;;25.66;46.15;97980.06;7277969;19;133382;-38
2023/12/25 05:15:10;;;;;;;366.67;13.35;;;;;;;25.61;45.86;97971.97;7279423;19;131997;-37
2023/12/25 05:17:36;;;;;;;326.73;12.27;;;;;;;25.59;46.24;97964.28;7277929;19;130147;-37
2023/12/25 05:20:02;;;;;;;279.70;10.30;;;;;;;25.64;46.44;97972.38;7277198;19;130533;-36
2023/12/25 05:22:27;;;;;;;318.80;11.67;;;;;;;25.51;46.23;97955.78;7277806;19;129409;-38
2023/12/25 05:24:53;;;;;;;357.30;12.87;;;;;;;25.72;45.92;97979.22;7278516;19;131625;-35
2023/12/25 05:27:18;;;;;;;273.07;9.70;;;;;;;25.81;45.50;97972.75;7278503;19;131186;-37
2023/12/25 05:29:43;;;;;;;247.00;9.23;;;;;;;25.91;45.67;97988.09;7276231;19;130750;-38
2023/12/25 05:32:08;;;;;;;363.00;13.07;;;;;;;25.98;45.13;97967.84;7276503;19;130816;-38
2023/12/25 05:34:34;;;;;;;317.47;11.40;;;;;;;26.07;44.89;97962.16;7279373;19;131086;-35
2023/12/25 05:36:59;;;;;;;338.50;12.43;;;;;;;26.04;44.95;97962.59;7278852;19;131497;-37
2023/12/25 05:39:25;;;;;;;315.20;12.10;;;;;;;25.99;44.92;97975.53;7277303;19;130342;-38
2023/12/25 05:41:51;;;;;;;365.88;13.15;;;;;;;25.83;45.04;97936.50;7277520;19;131761;-38
2023/12/25 05:44:16;;;;;;;336.20;12.50;;;;;;;25.81;45.17;97970.13;7276936;19;132174;-37
2023/12/25 05:46:42;;;;;;;297.07;10.80;;;;;;;25.74;45.49;97985.09;7276741;19;130278;-37
2023/12/25 05:49:07;;;;;;;327.40;12.10;;;;;;;25.62;46.16;97978.84;7277152;19;130488;-37
2023/12/25 05:51:32;;;;;;;336.07;12.07;;;;;;;25.43;46.76;97990.19;7277952;19;131120;-38
2023/12/25 05:53:58;;;;;;;319.50;11.53;;;;;;;25.18;46.75;97987.34;7277967;19;131062;-35
2023/12/25 05:56:23;;;;;;;284.23;10.50;;;;;;;25.06;47.23;97982.84;7276757;19;129740;-38
2023/12/25 05:58:48;;;;;;;326.63;12.07;;;;;;;24.91;47.96;97979.59;7274676;19;130004;-38
2023/12/25 06:01:14;;;;;;;398.07;14.53;;;;;;;24.68;48.83;97984.41;7276206;19;130923;-38
2023/12/25 06:03:40;;;;;;;290.23;10.60;;;;;;;24.52;48.78;97979.47;7278198;19;132616;-35
2023/12/25 06:06:06;;;;;;;292.47;10.57;;;;;;;24.37;49.35;97983.06;7276726;19;130544;-37
2023/12/25 06:08:31;;;;;;;345.97;12.63;;;;;;;24.21;49.53;97974.72;7276351;19;130378;-37
2023/12/25 06:10:57;;;;;;;359.13;13.07;;;;;;;23.97;50.60;97985.66;7277436;19;130398;-37
2023/12/25 06:13:22;;;;;;;302.70;11.03;;;;;;;23.87;50.50;97996.50;7275687;19;132833;-37
2023/12/25 06:15:48;;;;;;;245.83;8.87;;;;;;;23.72;51.28;97989.75;7277169;19;130799;-39
2023/12/25 06:18:14;;;;;;;337.80;12.27;;;;;;;23.68;51.43;97980.66;7274628;19;130903;-38
2023/12/25 06:20:40;;;;;;;316.57;11.57;;;;;;;23.56;51.53;97983.00;7277711;19;131545;-37
2023/12/25 06:23:06;;;;;;;276.70;10.10;;;;;;;23.48;51.78;97993.63;7274994;19;131034;-37
2023/12/25 06:25:31;;;;;;;303.20;10.97;;;;;;;23.36;52.03;98000.38;7277409;19;129969;-37
2023/12/25 06:27:56;;;;;;;387.40;14.27;;;;;;;23.09;52.62;97961.78;7275971;19;129868;-37
2023/12/25 06:30:22;;;;;;;287.77;10.23;;;;;;;23.14;52.88;97983.00;7276689;19;130481;-38
2023/12/25 06:32:47;;;;;;;271.37;9.77;;;;;;;23.12;53.12;97985.03;7275553;19;130562;-35
2023/12/25 06:35:13;;;;;;;342.03;12.53;;;;;;;23.03;53.15;97997.44;7275147;19;129510;-36
2023/12/25 06:37:38;;;;;;;403.20;14.47;;;;;;;22.92;53.46;97994.50;7275823;19;133787;-37
2023/12/25 06:40:05;;;;;;;348.43;12.47;;;;;;;22.95;53.68;97994.13;7276370;19;131712;-36
2023/12/25 06:42:30;;;;;;;;;;;;;;;22.86;53.28;98010.97;7281724;19;131100;-38
2023/12/25 06:44:56;;;;;;;321.35;11.75;;;;;;;22.90;53.94;98026.16;7282847;19;131133;-37
2023/12/25 06:47:21;;;;;;;335.20;11.97;;;;;;;22.88;53.34;98019.47;7282921;19;130503;-38
2023/12/25 06:49:46;;;;;;;275.37;10.07;;;;;;;22.88;53.79;98014.22;7282540;19;130447;-35
2023/12/25 06:52:12;;;;;;;399.27;14.68;;;;;;;22.92;53.31;98018.88;7274658;19;131909;-38
2023/12/25 06:54:37;;;;;;;297.73;10.77;;;;;;;23.05;52.93;98015.59;7279388;19;130470;-38
2023/12/25 06:57:03;;;;;;;433.20;15.65;;;;;;;23.12;52.95;98021.72;7278453;19;129259;-37
2023/12/25 06:59:29;;;;;;;450.27;17.40;;;;;;;23.31;52.00;98023.75;7273016;19;130940;-37
2023/12/25 07:01:54;;;;;;;324.57;11.50;;;;;;;23.44;51.66;98028.28;7277788;19;131550;-37
2023/12/25 07:04:20;;;;;;;386.40;14.48;;;;;;;23.63;51.84;98031.09;7276781;19;130222;-34
2023/12/25 07:06:45;;;;;;;369.77;13.23;;;;;;;23.90;51.11;98016.34;7278945;19;129807;-38
2023/12/25 07:09:14;;;;;;;341.00;12.30;;;;;;;24.10;50.09;98028.59;7274868;19;129770;-37
2023/12/25 07:11:39;;;;;;;367.55;13.38;;;;;;;24.22;49.98;98027.03;7276559;19;133011;-39
2023/12/25 07:14:05;;;;;;;318.37;11.23;;;;;;;24.40;49.18;98035.22;7274501;19;131830;-35
2023/12/25 07:16:30;;;;;;;374.30;13.30;;;;;;;24.60;49.19;98037.09;7275825;19;130894;-38
2023/12/25 07:18:55;;;;;;;368.60;13.60;;;;;;;24.69;48.23;98042.03;7274315;19;130242;-38
2023/12/25 07:21:21;;;;;;;420.42;15.15;;;;;;;24.85;48.50;98046.94;7272155;19;131608;-38
2023/12/25 07:23:47;;;;;;;424.73;15.50;;;;;;;24.99;47.90;98053.06;7272019;19;131981;-38
2023/12/25 07:26:12;;;;;;;414.93;15.10;;;;;;;25.03;48.13;98054.25;7272234;19;129781;-37
2023/12/25 07:28:37;;;;;;;412.25;14.85;;;;;;;24.96;48.39;98071.81;7271622;19;129887;-37
2023/12/25 07:31:03;;;;;;;384.00;14.20;;;;;;;24.90;48.44;98072.63;7273604;19;131646;-37
2023/12/25 07:33:29;;;;;;;343.33;12.50;;;;;;;24.84;48.46;98053.19;7272733;19;133127;-38
2023/12/25 07:35:54;;;;;;;355.13;12.83;;;;;;;24.75;48.37;98064.91;7276821;19;129958;-38
2023/12/25 07:38:22;;;;;;;528.73;21.37;;;;;;;24.68;48.41;98073.75;7271176;19;129605;-35
2023/12/25 07:40:49;;;;;;;286.17;10.32;;;;;;;24.51;49.53;98067.19;7275434;19;131473;-37
2023/12/25 07:43:14;;;;;;;;;;;;;;;24.31;49.45;98064.47;7270104;19;130660;-38
2023/12/25 07:45:40;;;;;;;332.80;12.18;;;;;;;24.38;49.34;98084.50;7274868;19;131391;-38
2023/12/25 07:48:05;;;;;;;351.07;12.77;;;;;;;24.35;49.67;98078.81;7271833;19;132904;-37
2023/12/25 07:50:31;;;;;;;381.30;14.03;;;;;;;24.25;49.45;98079.19;7274528;19;130891;-35
2023/12/25 07:52:56;;;;;;;431.47;15.97;;;;;;;24.17;49.93;98076.72;7274410;19;131475;-36
2023/12/25 07:55:22;;;;;;;322.52;11.60;;;;;;;24.12;49.87;98084.34;7271678;19;131542;-38
2023/12/25 07:57:48;;;;;;;320.55;11.48;;;;;;;23.99;49.90;98089.53;7275145;19;133316;-37
2023/12/25 08:00:14;;;;;;;405.92;14.82;;;;;;;23.91;50.53;98089.63;7272029;19;132032;-42
2023/12/25 08:02:40;;;;;;;431.83;15.83;;;;;;;23.86;50.90;98089.41;7271237;19;131663;-35
2023/12/25 08:05:06;;;;;;;432.30;16.00;;;;;;;23.81;51.67;98097.03;7271060;19;130729;-36
2023/12/25 08:07:31;;;;;;;428.80;15.65;;;;;;;23.72;51.59;98090.28;7269239;19;131817;-37
2023/12/25 08:09:57;;;;;;;362.50;12.85;;;;;;;23.67;50.99;98095.28;7272152;19;132299;-38
2023/12/25 08:12:22;;;;;;;408.90;14.98;;;;;;;23.65;51.37;98122.72;7274551;19;130820;-36
2023/12/25 08:14:48;;;;;;;326.40;11.73;;;;;;;23.58;51.34;98109.53;7275992;19;130091;-36
2023/12/25 08:17:13;;;;;;;363.50;13.23;;;;;;;23.54;51.53;98108.28;7270618;19;130193;-38
2023/12/25 08:19:39;;;;;;;434.40;15.93;;;;;;;23.48;51.53;98111.66;7272622;19;130711;-37
2023/12/25 08:22:05;;;;;;;374.23;13.57;;;;;;;23.35;51.88;98090.56;7274116;19;132039;-36
2023/12/25 08:24:30;;;;;;;321.52;11.38;;;;;;;23.39;52.21;98112.78;7271993;19;131388;-35
2023/12/25 08:26:55;;;;;;;324.73;11.53;;;;;;;23.22;52.32;98111.38;7274865;19;130529;-37
2023/12/25 08:29:21;;;;;;;515.20;19.65;;;;;;;23.34;52.07;98132.72;7271703;19;130106;-38
2023/12/25 08:31:46;;;;;;;336.87;12.03;;;;;;;23.34;52.54;98128.25;7275194;19;133366;-37
2023/12/25 08:34:11;;;;;;;360.97;12.83;;;;;;;23.33;52.20;98136.31;7268798;19;132137;-37
2023/12/25 08:36:37;;;;;;;288.00;10.23;;;;;;;23.14;52.29;98125.41;7274933;19;131095;-38
2023/12/25 08:39:02;;;;;;;427.77;15.50;;;;;;;23.26;52.89;98149.31;7272493;19;131993;-37
2023/12/25 08:41:27;;;;;;;367.17;13.27;;;;;;;23.23;52.36;98168.06;7274590;19;130352;-36
2023/12/25 08:43:53;;;;;;;371.95;13.30;;;;;;;23.20;52.92;98157.94;7274970;19;130905;-38
2023/12/25 08:46:18;;;;;;;403.05;14.63;;;;;;;23.18;52.66;98167.78;7268179;19;131126;-38
2023/12/25 08:48:44;;;;;;;431.77;16.03;;;;;;;23.14;53.11;98171.78;7267231;19;130561;-35
2023/12/25 08:51:10;;;;;;;411.92;14.93;;;;;;;23.13;53.38;98172.78;7273520;19;133271;-37
2023/12/25 08:53:35;;;;;;;415.40;15.57;;;;;;;23.10;53.11;98188.88;7270000;19;132396;-35
2023/12/25 08:56:01;;;;;;;403.83;14.77;;;;;;;23.10;52.90;98181.00;7270297;19;130191;-41
2023/12/25 08:58:27;;;;;;;422.05;15.90;;;;;;;23.09;53.47;98187.22;7271524;19;131925;-36
2023/12/25 09:00:52;;;;;;;337.85;11.90;;;;;;;23.04;52.99;98193.03;7270821;19;131951;-39
2023/12/25 09:03:18;;;;;;;402.15;14.88;;;;;;;23.09;52.76;98205.59;7268853;19;130905;-37
2023/12/25 09:05:43;;;;;;;399.63;14.73;;;;;;;23.09;53.75;98221.31;7267518;19;131541;-36
2023/12/25 09:08:10;;;;;;;325.60;11.70;;;;;;;23.09;53.16;98240.50;7271973;19;130491;-39
2023/12/25 09:10:36;;;;;;;557.95;22.40;;;;;;;23.07;53.21;98218.09;7271246;19;132693;-38
2023/12/25 09:13:02;;;;;;;324.70;11.37;;;;;;;23.32;52.49;98265.81;7265881;19;132275;-37
2023/12/25 09:15:28;;;;;;;352.60;12.85;;;;;;;23.38;52.34;98249.34;7276419;19;131632;-38
2023/12/25 09:17:53;;;;;;;342.00;12.20;;;;;;;23.49;52.07;98241.00;7275177;19;131368;-36
2023/12/25 09:20:18;;;;;;;397.30;14.47;;;;;;;23.66;51.61;98266.84;7263996;19;131760;-34
2023/12/25 09:22:44;;;;;;;358.73;12.93;;;;;;;23.70;51.52;98257.59;7270425;19;130706;-37
2023/12/25 09:25:10;;;;;;;358.23;12.87;;;;;;;23.83;50.75;98254.31;7270119;19;130839;-37
2023/12/25 09:27:35;;;;;;;396.90;14.93;;;;;;;23.79;50.89;98240.75;7268544;19;131934;-42
2023/12/25 09:30:02;;;;;;;333.63;11.93;;;;;;;24.04;50.43;98264.84;7268619;19;131752;-40
2023/12/25 09:32:27;;;;;;;399.05;15.05;;;;;;;23.99;50.50;98240.97;7265651;19;131896;-35
2023/12/25 09:34:53;;;;;;;384.77;14.07;;;;;;;24.06;50.71;98242.66;7268574;19;131278;-36
2023/12/25 09:37:18;;;;;;;330.40;12.57;;;;;;;23.94;50.09;98227.56;7274950;19;130973;-37
2023/12/25 09:39:43;;;;;;;394.00;14.48;;;;;;;24.20;49.91;98256.72;7261366;19;131138;-36
2023/12/25 09:42:10;;;;;;;316.90;11.27;;;;;;;24.18;50.33;98256.09;7268775;19;130867;-35
2023/12/25 09:44:37;;;;;;;366.15;13.23;;;;;;;24.13;50.01;98259.28;7268684;19;130581;-37
2023/12/25 09:47:06;;;;;;;366.27;13.43;;;;;;;24.24;49.55;98264.03;7267230;19;130733;-37
2023/12/25 09:49:35;;;;;;;433.30;16.67;;;;;;;24.33;49.97;98246.31;7269560;19;130998;-35
2023/12/25 09:52:01;;;;;;;369.27;13.32;;;;;;;24.43;49.14;98244.16;7263879;19;131992;-36
2023/12/25 09:54:27;;;;;;;385.60;13.98;;;;;;;24.48;49.67;98247.88;7272707;19;131505;-37
2023/12/25 09:56:55;;;;;;;519.70;20.77;;;;;;;24.54;49.50;98237.59;7273056;19;130435;-34
2023/12/25 09:59:21;;;;;;;442.75;16.50;;;;;;;24.56;49.29;98248.72;7264812;19;131019;-34
2023/12/25 10:01:47;;;;;;;311.57;11.63;;;;;;;24.63;49.05;98262.72;7269013;19;132622;-36
2023/12/25 10:04:12;;;;;;;405.70;14.77;;;;;;;24.66;48.76;98254.47;7270887;19;131294;-35
2023/12/25 10:06:38;;;;;;;315.33;11.45;;;;;;;24.41;48.96;98236.47;7266959;19;130129;-37
2023/12/25 10:09:03;;;;;;;368.83;13.40;;;;;;;24.49;49.13;98270.50;7271469;19;131233;-37
2023/12/25 10:11:29;;;;;;;355.97;13.13;;;;;;;24.37;50.17;98272.03;7267584;19;132244;-36
2023/12/25 10:13:54;;;;;;;320.30;11.47;;;;;;;24.34;49.58;98261.09;7276012;19;131517;-38
2023/12/25 10:16:20;;;;;;;476.70;18.05;;;;;;;24.29;50.18;98268.72;7274897;19;131834;-35
2023/12/25 10:18:47;;;;;;;328.00;12.00;;;;;;;24.17;50.08;98271.03;7276905;19;131781;-38
2023/12/25 10:21:12;;;;;;;350.98;12.60;;;;;;;24.11;50.21;98276.25;7278900;19;129914;-36
2023/12/25 10:23:38;;;;;;;418.60;14.97;;;;;;;24.05;50.37;98288.28;7272211;19;131399;-36
2023/12/25 10:26:04;;;;;;;354.27;12.55;;;;;;;23.82;50.95;98261.38;7273529;19;131804;-37
2023/12/25 10:28:32;;;;;;;313.48;11.45;;;;;;;23.83;51.48;98259.56;7277597;19;130376;-38
2023/12/25 10:31:07;;;;;;;408.58;15.38;;;;;;;23.83;51.74;98268.22;7277048;19;129853;-37
2023/12/25 10:33:35;;;;;;;349.20;13.05;;;;;;;23.82;51.43;98271.88;7278566;19;130368;-36
2023/12/25 10:36:09;;;;;;;343.23;12.32;;;;;;;23.63;51.67;98254.09;7274844;19;130881;-35
2023/12/25 10:38:42;;;;;;;375.58;13.27;;;;;;;23.63;51.68;98272.47;7272352;19;131910;-37
2023/12/25 10:41:27;;;;;;;342.95;12.20;;;;;;;23.63;52.48;98266.41;7278097;19;131681;-36
2023/12/25 10:43:57;;;;;;;371.52;13.48;;;;;;;23.59;52.45;98270.38;7272771;19;129920;-35
2023/12/25 10:46:26;;;;;;;361.65;13.48;;;;;;;23.48;51.97;98281.34;7277577;19;131471;-38
2023/12/25 10:48:54;;;;;;;419.48;15.80;;;;;;;23.47;51.93;98274.50;7274526;19;131099;-37
2023/12/25 10:51:25;;;;;;;374.25;14.30;;;;;;;23.43;52.22;98266.19;7277927;19;129420;-37
2023/12/25 10:53:51;;;;;;;400.15;15.00;;;;;;;23.41;52.26;98267.34;7272002;19;130860;-35
2023/12/25 10:56:22;;;;;;;387.00;14.27;;;;;;;23.44;52.31;98266.97;7273602;19;130403;-36